Date,TemperatureHighF,TemperatureAvgF,TemperatureLowF,DewpointHighF,DewpointAvgF,DewpointLowF,HumidityHigh,HumidityAvg,HumidityLow,PressureMaxIn,PressureMinIn,WindSpeedMaxMPH,WindSpeedAvgMPH,GustSpeedMaxMPH,PrecipitationSumIn
2013-1-1,59,58,57,58,57,56,98,97,96,0.00,40.00,5,3,18,5.60
2013-1-2,59,58,57,58,57,56,98,97,97,0.00,40.00,4,4,20,2.99
2013-1-3,60,58,55,59,57,54,98,97,97,0.00,40.00,6,-39,20,0.19
2013-1-4,57,56,55,56,55,54,99,98,97,0.00,40.00,6,5,25,0.00
2013-1-5,58,56,55,57,55,54,97,97,96,0.00,40.00,6,5,28,0.00
2013-1-6,58,56,54,57,55,51,97,95,90,0.00,40.00,6,5,29,0.00
2013-1-7,59,56,55,56,55,52,99,94,81,0.00,40.00,4,3,20,0.00
2013-1-8,58,56,54,57,55,53,97,96,93,0.00,40.00,4,3,18,0.00
2013-1-9,59,57,56,58,56,55,97,97,95,0.00,40.00,4,2,17,0.00
2013-1-10,60,56,53,56,54,51,97,93,85,0.00,40.00,4,2,14,0.00
2013-1-11,63,57,54,61,55,53,97,93,81,0.00,40.00,3,2,14,0.00
2013-1-12,65,58,54,61,56,52,97,93,80,0.00,40.00,2,1,12,0.00
2013-1-13,68,59,53,60,55,51,96,87,71,0.00,40.00,2,1,8,0.00
2013-1-14,61,58,55,59,57,53,96,95,90,0.00,40.00,4,2,17,0.00
2013-1-15,65,58,51,60,55,50,97,91,78,0.00,40.00,2,1,8,0.00
2013-1-16,62,54,48,55,50,47,96,88,67,0.00,40.00,1,1,7,0.00
2013-1-17,60,53,49,56,52,48,96,94,85,0.00,40.00,1,0,6,0.00
2013-1-18,63,55,48,54,51,47,97,90,61,0.00,40.00,3,1,14,0.00
2013-1-19,58,52,48,53,50,47,98,93,73,0.00,40.00,2,1,13,0.00
2013-1-20,56,52,50,52,50,49,97,95,82,0.00,40.00,3,2,13,0.00
2013-1-21,58,54,50,54,52,49,97,93,81,0.00,40.00,4,3,17,0.00
2013-1-22,65,56,53,55,52,47,97,87,55,0.00,40.00,4,3,17,0.00
2013-1-23,59,55,52,58,54,51,97,96,92,0.00,40.00,4,3,20,0.00
2013-1-24,59,56,52,58,55,51,97,96,93,0.00,40.00,3,1,14,0.00
2013-1-25,65,56,51,59,53,50,97,89,62,0.00,40.00,2,1,6,0.00
2013-1-26,64,56,50,59,53,48,97,90,75,0.00,40.00,2,1,10,0.00
2013-1-27,62,56,51,57,54,50,96,91,78,0.00,40.00,4,2,17,0.00
2013-1-28,63,57,54,61,55,50,96,93,86,0.00,40.00,2,1,14,0.00
2013-1-29,61,57,54,59,55,50,96,94,87,0.00,40.00,2,1,14,0.00
2013-1-30,63,58,54,60,55,52,96,92,82,0.00,40.00,2,1,7,0.00
2013-1-31,59,57,55,58,56,54,98,97,96,0.00,40.00,3,2,11,0.00
2013-2-1,62,55,50,55,50,32,100,86,35,0.00,40.00,4,3,21,0.00
2013-2-2,66,56,51,56,48,22,92,77,27,0.00,40.00,4,2,21,0.00
2013-2-3,66,56,50,54,39,9,96,62,15,0.00,40.00,4,2,16,0.00
2013-2-4,55,53,51,54,52,49,98,96,93,0.00,40.00,4,4,24,0.00
2013-2-5,58,53,51,55,52,49,97,94,86,0.00,40.00,4,3,20,0.00
2013-2-6,59,55,53,58,54,52,97,97,95,0.00,40.00,3,2,16,0.00
2013-2-7,61,56,54,58,55,53,97,96,87,0.00,40.00,4,2,16,0.00
2013-2-8,67,57,53,58,54,51,96,88,66,0.00,40.00,4,2,17,0.00
2013-2-9,60,55,52,57,53,51,97,93,78,0.00,40.00,4,2,15,0.00
2013-2-10,57,55,52,56,54,50,97,95,89,0.00,40.00,3,2,20,0.00
2013-2-11,59,55,53,58,54,52,98,97,96,0.00,40.00,4,3,20,0.00
2013-2-12,56,53,50,55,52,49,98,97,96,0.00,40.00,4,3,16,0.00
2013-2-13,59,52,49,54,50,48,97,92,79,0.00,40.00,3,2,16,0.00
2013-2-14,59,53,49,55,51,48,97,93,79,0.00,40.00,3,3,16,0.00
2013-2-15,60,54,50,58,52,48,97,95,89,0.00,40.00,4,3,19,0.00
2013-2-16,56,54,52,54,52,50,97,94,82,0.00,40.00,4,4,24,0.00
2013-2-17,54,52,52,53,51,49,97,94,89,0.00,40.00,5,4,25,0.00
2013-2-18,55,53,51,52,51,50,98,95,87,0.00,40.00,5,4,22,0.00
2013-2-19,59,53,49,53,50,46,97,89,73,0.00,40.00,5,4,22,0.00
2013-2-20,58,54,53,54,52,51,97,93,85,0.00,40.00,4,3,19,0.00
2013-2-21,57,52,3,56,52,3,98,97,95,0.00,40.00,4,-43,57,1.45
2013-2-22,57,56,54,56,54,53,98,97,96,0.00,40.00,4,3,23,2.36
2013-2-23,57,55,53,56,54,52,98,96,92,0.00,40.00,4,2,18,0.48
2013-2-24,55,53,51,54,52,50,98,97,92,0.00,40.00,4,3,19,0.65
2013-2-25,57,54,51,56,52,49,98,95,91,0.00,40.00,4,3,22,0.23
2013-2-26,55,54,52,54,52,51,97,96,94,0.00,40.00,4,4,19,0.38
2013-2-27,59,54,50,54,51,48,97,90,81,0.00,40.00,4,3,19,0.25
2013-2-28,59,54,51,52,50,48,97,88,76,0.00,40.00,4,3,23,0.00
2013-3-1,55,52,50,53,50,48,97,93,86,0.00,40.00,4,4,21,0.09
2013-3-2,61,54,50,53,50,46,95,87,69,0.00,40.00,4,3,21,0.01
2013-3-3,61,54,50,52,49,45,93,85,68,0.00,40.00,4,3,21,0.01
2013-3-4,64,54,50,54,50,47,94,85,66,0.00,40.00,5,3,20,0.00
2013-3-5,64,55,50,56,50,46,96,82,59,0.00,40.00,4,3,16,0.01
2013-3-6,66,56,52,57,52,51,97,90,64,0.00,40.00,3,2,14,0.08
2013-3-7,65,56,50,59,53,48,96,90,66,0.00,40.00,2,1,8,0.03
2013-3-8,69,56,50,54,50,46,95,82,48,0.00,40.00,3,2,12,0.01
2013-3-9,58,56,54,56,54,52,97,94,91,0.00,40.00,4,3,18,0.37
2013-3-10,58,55,53,57,54,52,97,96,94,0.00,40.00,4,4,19,1.83
2013-3-11,65,57,52,58,54,50,97,89,70,0.00,40.00,2,1,10,0.31
2013-3-12,63,56,49,59,53,48,96,91,71,0.00,40.00,2,1,9,0.14
2013-3-13,60,52,45,56,50,44,97,92,80,0.00,40.00,1,1,5,0.08
2013-3-14,63,56,49,58,52,47,96,89,71,0.00,40.00,2,1,9,0.00
2013-3-15,63,56,52,54,52,50,97,86,63,0.00,40.00,3,2,15,0.00
2013-3-16,55,52,48,52,50,47,97,94,83,0.00,40.00,2,2,11,0.26
2013-3-17,59,51,45,54,48,43,97,91,66,0.00,40.00,1,1,7,0.38
2013-3-18,61,51,43,57,48,42,97,92,70,0.00,40.00,1,0,6,0.08
2013-3-19,68,55,45,55,48,44,96,79,49,0.00,40.00,2,1,10,0.00
2013-3-20,70,58,50,57,51,46,93,80,51,0.00,40.00,2,1,10,0.00
2013-3-21,71,61,55,62,55,51,92,81,57,0.00,40.00,1,1,7,0.00
2013-3-22,62,58,56,59,56,55,96,95,91,0.00,40.00,2,1,12,0.83
2013-3-23,59,57,56,58,56,55,97,97,96,0.00,40.00,2,1,13,1.86
2013-3-24,61,58,55,59,56,54,98,96,91,0.00,40.00,2,1,11,0.81
2013-3-25,64,58,55,62,57,54,97,95,82,0.00,40.00,2,1,9,0.28
2013-3-26,64,58,53,60,56,52,97,92,78,0.00,40.00,1,1,6,0.04
2013-3-27,61,57,53,59,55,52,96,93,87,0.00,40.00,2,1,8,0.34
2013-3-28,58,56,54,57,55,53,97,96,94,0.00,40.00,3,2,13,4.00
2013-3-29,58,56,54,57,55,53,97,97,96,0.00,40.00,3,2,12,0.77
2013-3-30,60,56,53,58,53,-100,97,95,85,0.00,40.00,2,1,9,0.11
2013-3-31,58,52,48,53,49,46,98,91,69,0.00,40.00,2,1,11,0.24
2013-4-1,57,50,46,52,49,45,97,94,78,0.00,40.00,3,2,9,0.12
2013-4-2,56,52,48,52,49,47,97,92,74,0.00,40.00,2,1,8,0.06
2013-4-3,58,52,47,55,50,46,97,92,83,0.00,40.00,1,1,8,0.00
2013-4-4,63,55,46,58,50,44,96,85,64,0.00,40.00,1,0,6,0.00
2013-4-5,68,59,53,58,54,51,97,85,59,0.00,40.00,2,2,10,0.07
2013-4-6,69,61,56,62,57,44,97,89,64,0.00,40.00,4,2,18,0.18
2013-4-7,69,60,56,62,56,51,96,88,70,0.00,40.00,3,2,14,0.01
2013-4-8,69,60,55,59,54,49,95,84,61,0.00,40.00,3,2,13,0.00
2013-4-9,70,60,55,57,55,54,96,86,63,0.00,40.00,2,2,12,0.04
2013-4-10,69,60,56,58,56,53,97,87,61,0.00,40.00,4,2,15,0.03
2013-4-11,67,60,55,62,58,54,97,93,75,0.00,40.00,4,2,15,0.07
2013-4-12,66,60,55,60,57,54,97,91,76,0.00,40.00,3,1,12,0.07
2013-4-13,74,60,54,64,56,49,96,86,59,0.00,40.00,2,1,11,0.22
2013-4-14,63,59,56,60,56,53,96,92,86,0.00,40.00,3,2,14,0.01
2013-4-15,72,62,56,61,56,53,95,84,59,0.00,40.00,2,1,10,0.01
2013-4-16,72,61,55,63,57,53,95,86,62,0.00,40.00,3,1,13,0.00
2013-4-17,67,60,56,60,56,52,96,89,74,0.00,40.00,4,3,20,0.02
2013-4-18,62,58,56,60,56,54,97,95,89,0.00,40.00,4,3,17,0.15
2013-4-19,61,58,55,60,57,53,97,97,93,0.00,40.00,4,3,20,0.41
2013-4-20,69,60,54,65,57,53,97,90,74,0.00,40.00,2,1,7,0.02
2013-4-21,71,60,53,60,56,52,97,87,66,0.00,40.00,2,1,11,0.00
2013-4-22,67,61,56,61,57,53,94,87,68,0.00,40.00,2,1,10,0.00
2013-4-23,70,62,56,62,57,54,96,86,64,0.00,40.00,3,2,13,0.02
2013-4-24,67,61,57,64,59,55,97,93,84,0.00,40.00,2,1,8,0.35
2013-4-25,71,62,56,58,55,51,96,81,53,0.00,40.00,3,2,13,0.01
2013-4-26,70,60,55,56,54,52,95,83,58,0.00,40.00,4,3,14,0.00
2013-4-27,71,61,54,61,54,50,95,81,49,0.00,40.00,3,2,18,0.00
2013-4-28,70,60,52,61,54,46,93,80,59,0.00,40.00,2,1,8,0.00
2013-4-29,69,61,55,63,56,53,94,86,69,0.00,40.00,2,1,10,0.07
2013-4-30,69,62,56,62,58,54,94,86,73,0.00,40.00,1,1,6,0.03
2013-5-1,73,62,55,60,56,53,97,83,60,0.00,40.00,3,2,12,0.04
2013-5-2,70,60,55,63,57,53,97,91,69,0.00,40.00,3,2,15,0.18
2013-5-3,70,60,54,61,56,53,96,88,68,0.00,40.00,2,1,8,0.01
2013-5-4,69,59,51,60,54,49,97,85,59,0.00,40.00,2,1,9,0.00
2013-5-5,68,59,54,63,56,53,97,91,68,0.00,40.00,4,2,15,0.18
2013-5-6,65,60,54,62,58,53,97,95,81,0.00,40.00,3,1,12,0.77
2013-5-7,69,60,53,61,56,51,96,86,67,0.00,40.00,2,1,11,0.03
2013-5-8,72,62,54,62,58,53,96,88,69,0.00,40.00,2,2,12,0.00
2013-5-9,75,63,56,65,58,55,96,86,60,0.00,40.00,2,1,8,0.00
2013-5-10,65,60,55,64,56,-100,97,95,92,0.00,40.00,1,1,8,0.75
2013-5-11,62,59,58,61,57,-100,98,97,97,0.00,40.00,3,2,11,2.05
2013-5-12,61,60,58,60,59,57,99,98,97,0.00,40.00,3,3,14,2.83
2013-5-13,64,60,58,63,59,57,98,97,95,0.00,40.00,3,2,17,0.81
2013-5-14,65,61,58,62,58,55,98,92,76,0.00,40.00,3,2,16,0.08
2013-5-15,65,60,58,61,58,56,97,94,84,0.00,40.00,3,2,15,0.09
2013-5-16,64,54,56,61,41,-100,97,93,87,0.00,40.00,3,2,16,0.22
2013-5-17,67,59,56,60,54,-100,97,91,74,0.00,40.00,3,2,16,0.37
2013-5-18,67,59,56,61,56,53,96,90,79,0.00,40.00,2,1,10,1.04
2013-5-19,64,59,53,61,56,52,97,92,80,0.00,40.00,2,1,8,0.44
2013-5-20,68,59,53,60,56,52,96,90,75,0.00,40.00,2,0,9,0.58
2013-5-21,70,60,52,60,56,51,96,85,64,0.00,40.00,2,1,9,0.01
2013-5-22,69,61,54,61,56,51,93,84,72,0.00,40.00,2,1,7,0.00
2013-5-23,70,63,56,63,58,53,95,84,72,0.00,40.00,2,1,13,0.00
2013-5-24,70,62,57,61,58,54,96,87,69,0.00,40.00,3,2,13,0.00
2013-5-25,62,59,57,61,58,55,97,96,92,0.00,40.00,3,3,18,0.48
2013-5-26,67,60,56,61,57,55,96,90,79,0.00,40.00,4,2,17,0.11
2013-5-27,65,59,56,62,58,55,97,94,85,0.00,40.00,3,2,15,0.39
2013-5-28,65,60,57,63,59,56,97,95,88,0.00,40.00,3,2,12,0.40
2013-5-29,66,61,56,63,59,55,96,94,84,0.00,40.00,2,1,10,0.08
2013-5-30,70,62,58,64,60,57,97,92,79,0.00,40.00,3,2,15,0.03
2013-5-31,65,62,59,64,60,58,97,97,95,0.00,40.00,4,3,15,0.17
2013-6-1,66,61,58,64,60,57,98,95,84,0.00,40.00,3,3,16,0.07
2013-6-2,66,62,58,65,61,57,97,96,90,0.00,40.00,4,3,16,0.20
2013-6-3,63,59,57,61,58,56,97,96,84,0.00,40.00,4,3,26,0.14
2013-6-4,69,60,57,62,58,56,98,93,69,0.00,40.00,3,2,17,0.11
2013-6-5,62,58,56,61,57,54,97,95,93,0.00,40.00,3,2,16,0.12
2013-6-6,62,58,56,58,56,54,96,93,86,0.00,40.00,3,3,19,0.01
2013-6-7,59,57,55,58,56,53,97,96,92,0.00,40.00,3,3,18,0.32
2013-6-8,66,59,56,60,57,55,97,91,75,0.00,40.00,3,2,14,0.21
2013-6-9,64,59,57,62,58,56,97,95,89,0.00,40.00,3,2,14,0.18
2013-6-10,64,59,57,60,58,56,97,95,86,0.00,40.00,3,2,15,0.08
2013-6-11,69,61,58,61,59,57,98,92,75,0.00,40.00,4,2,20,0.08
2013-6-12,64,60,57,62,58,54,97,93,79,0.00,40.00,4,3,21,0.26
2013-6-13,61,59,57,60,58,56,98,97,95,0.00,40.00,4,3,25,0.62
2013-6-14,65,60,57,60,57,55,98,92,78,0.00,40.00,4,3,18,0.94
2013-6-15,64,59,56,61,57,55,97,94,83,0.00,40.00,3,2,17,0.09
2013-6-16,68,60,56,61,57,55,97,90,72,0.00,40.00,3,3,17,0.09
2013-6-17,65,60,57,62,58,56,97,94,82,0.00,40.00,4,2,18,0.30
2013-6-18,65,60,58,60,58,57,97,93,79,0.00,40.00,4,3,21,0.24
2013-6-19,66,60,56,61,57,55,97,90,77,0.00,40.00,3,2,16,0.14